Ai Maru — JD2031 — position and weather

sailwx.info

Track history (hours):
 
Tides and Currents Weather Stations Pressure Air Temp Water Temp Dewpoint Dewpoint Depression Visibility Wind Speed Wind Dir Waves Ship Positions

Ai Maru

Last reported at 2018-Jun-19 11:36 UTC. Time now 2018-Jun-19 22:13 UTC.
Position N 35°04' E 139°44'.

Length 105 m; draft 6.4 m.

Type: Tanker. MMSI: 431501797.

Date/timePositionNaut miles runAvg speedWind from/ knotsBaromVisibWave heightAir tempDewpointWater temp
2018-Jun-19 11:36N 35°04' E 139°44'113.6
2018-Jun-19 11:30N 35°05' E 139°45'713.9
2018-Jun-19 11:00N 35°12' E 139°46'611.2
2018-Jun-19 10:30N 35°17' E 139°45'612.0
2018-Jun-19 10:00N 35°23' E 139°42'612.8
2018-Jun-19 09:30N 35°28' E 139°47'3 6.6
2018-Jun-19 09:01N 35°31' E 139°46'0 0.1
2018-Jun-19 08:29N 35°31' E 139°46'0 0.0
2018-Jun-19 08:01N 35°31' E 139°46'0 0.1
2018-Jun-19 07:30N 35°31' E 139°46'0 0.1
2018-Jun-19 07:01N 35°31' E 139°46'0 0.1
2018-Jun-19 06:31N 35°31' E 139°46'0 0.0
2018-Jun-19 06:00N 35°31' E 139°46'0 0.0
2018-Jun-19 05:30N 35°31' E 139°46'0 0.0
2018-Jun-19 05:00N 35°31' E 139°46'0 0.0
2018-Jun-19 04:29N 35°31' E 139°46'0 0.1
2018-Jun-19 04:00N 35°31' E 139°46'0 0.1
2018-Jun-19 03:30N 35°31' E 139°46'0 0.0
2018-Jun-19 03:00N 35°31' E 139°46'0 0.0
2018-Jun-19 02:30N 35°31' E 139°46'0 0.0
2018-Jun-19 01:59N 35°31' E 139°46'0 0.1
2018-Jun-19 01:31N 35°31' E 139°46'0 0.1
2018-Jun-19 01:01N 35°31' E 139°46'0 0.0
2018-Jun-18 23:36N 35°31' E 139°46'0 0.0
2018-Jun-18 23:16N 35°31' E 139°46'0 0.0
2018-Jun-18 23:00N 35°31' E 139°46'0 0.0
2018-Jun-18 22:30N 35°31' E 139°46'0 0.0
2018-Jun-18 21:59N 35°31' E 139°46'0 0.0
2018-Jun-18 21:30N 35°31' E 139°46'1 1.4
2018-Jun-18 21:01N 35°31' E 139°46'4 8.0
2018-Jun-18 20:30N 35°28' E 139°42'4 8.8
2018-Jun-18 20:00N 35°23' E 139°44'0 0.3
2018-Jun-18 19:29N 35°23' E 139°44'0 0.0
2018-Jun-18 18:56N 35°23' E 139°44'0 0.0
2018-Jun-18 18:29N 35°23' E 139°44'0 0.1
2018-Jun-18 17:59N 35°23' E 139°44'0 0.0
2018-Jun-18 17:29N 35°23' E 139°44'0 0.0
2018-Jun-18 16:59N 35°23' E 139°44'0 0.0
2018-Jun-18 16:29N 35°23' E 139°44'0 0.1
2018-Jun-18 15:59N 35°23' E 139°44'0 0.0
2018-Jun-18 15:29N 35°23' E 139°44'0 0.0
2018-Jun-18 14:59N 35°23' E 139°44'0 0.0
2018-Jun-18 14:29N 35°23' E 139°44'0 0.0
2018-Jun-18 13:59N 35°23' E 139°44'0 0.0
2018-Jun-18 13:29N 35°23' E 139°44'0 0.0
2018-Jun-18 12:59N 35°23' E 139°44'0 0.0
2018-Jun-18 12:29N 35°23' E 139°44'0 0.0
2018-Jun-18 11:59N 35°23' E 139°44'0 0.1
2018-Jun-18 11:23N 35°23' E 139°44'0 0.0
2018-Jun-18 10:59N 35°23' E 139°44'0 0.1
2018-Jun-18 10:29N 35°23' E 139°44'0 0.0
2018-Jun-18 09:59N 35°23' E 139°44'0 0.0
2018-Jun-18 09:29N 35°23' E 139°44'0 0.0
2018-Jun-18 08:56N 35°23' E 139°44'0 0.1
2018-Jun-18 08:29N 35°23' E 139°44'0 0.0
2018-Jun-18 07:59N 35°23' E 139°44'0 0.0
2018-Jun-18 07:26N 35°23' E 139°44'0 0.0
2018-Jun-18 06:59N 35°23' E 139°44'0 0.0
2018-Jun-18 06:29N 35°23' E 139°44'0 0.1
2018-Jun-18 05:59N 35°23' E 139°44'0 0.1
2018-Jun-18 05:26N 35°23' E 139°44'0 0.0
2018-Jun-18 04:59N 35°23' E 139°44'0 0.0
2018-Jun-18 04:29N 35°23' E 139°44'0 0.0
2018-Jun-18 03:59N 35°23' E 139°44'0 0.0
2018-Jun-18 03:29N 35°23' E 139°44'0 0.0
2018-Jun-18 02:59N 35°23' E 139°44'0 0.0
2018-Jun-18 02:29N 35°23' E 139°44'0 0.0
2018-Jun-18 01:59N 35°23' E 139°44'0 0.0
2018-Jun-18 01:26N 35°23' E 139°44'0 0.0
2018-Jun-18 00:59N 35°23' E 139°44'0 0.1
2018-Jun-18 00:30N 35°23' E 139°44'4 7.2
2018-Jun-18 00:00N 35°24' E 139°40'0 0.4
2018-Jun-17 23:30N 35°24' E 139°40'0 0.9
2018-Jun-17 23:00N 35°24' E 139°40'5 9.8
2018-Jun-17 22:30N 35°20' E 139°43'612.1
2018-Jun-17 21:59N 35°15' E 139°47'712.4
2018-Jun-17 21:28N 35°08' E 139°46'  
2018-Jun-13 14:26N 35°02' E 139°44'614.6
2018-Jun-13 14:00N 35°09' E 139°45'713.3
2018-Jun-13 13:30N 35°15' E 139°46'612.7
2018-Jun-13 13:00N 35°21' E 139°42'4 8.9
2018-Jun-13 12:30N 35°24' E 139°40'0 0.0
2018-Jun-13 12:00N 35°24' E 139°40'0 0.0
2018-Jun-13 11:30N 35°24' E 139°40'0 0.0
2018-Jun-13 11:00N 35°24' E 139°40'0 0.0
2018-Jun-13 10:30N 35°24' E 139°40'0 0.0
2018-Jun-13 10:00N 35°24' E 139°40'0 0.0
2018-Jun-13 09:30N 35°24' E 139°40'0 0.0
2018-Jun-13 09:00N 35°24' E 139°40'0 0.0
2018-Jun-13 08:30N 35°24' E 139°40'0 0.0
2018-Jun-13 08:00N 35°24' E 139°40'0 0.0
2018-Jun-13 07:30N 35°24' E 139°40'0 0.0
2018-Jun-13 07:00N 35°24' E 139°40'0 0.0
2018-Jun-13 06:30N 35°24' E 139°40'0 0.0
2018-Jun-13 06:00N 35°24' E 139°40'0 0.0
2018-Jun-13 05:30N 35°24' E 139°40'0 0.0
2018-Jun-13 05:00N 35°24' E 139°40'0 0.0
2018-Jun-13 04:30N 35°24' E 139°40'0 0.0
2018-Jun-13 04:00N 35°24' E 139°40'0 0.0
2018-Jun-13 03:30N 35°24' E 139°40'0 0.0
2018-Jun-13 03:00N 35°24' E 139°40'1 2.1
2018-Jun-13 02:30N 35°24' E 139°40'4 7.1
2018-Jun-13 02:00N 35°22' E 139°44'0 0.1
2018-Jun-13 01:28N 35°22' E 139°44'0 0.0
2018-Jun-13 00:58N 35°22' E 139°44'0 0.0
2018-Jun-13 00:28N 35°22' E 139°44'0 0.0
2018-Jun-12 23:58N 35°22' E 139°44'0 0.0
2018-Jun-12 23:28N 35°22' E 139°44'0 0.0
2018-Jun-12 22:58N 35°22' E 139°44'0 0.0
2018-Jun-12 22:25N 35°22' E 139°44'0 0.0
2018-Jun-12 21:58N 35°22' E 139°44'0 0.0
2018-Jun-12 21:28N 35°22' E 139°44'0 0.0
2018-Jun-12 20:58N 35°22' E 139°44'0 0.0
2018-Jun-12 20:28N 35°22' E 139°44'0 0.0
2018-Jun-12 19:58N 35°22' E 139°44'0 0.0
2018-Jun-12 19:28N 35°22' E 139°44'0 0.0
2018-Jun-12 18:55N 35°22' E 139°44'1 3.1
2018-Jun-12 18:30N 35°21' E 139°44'611.6
2018-Jun-12 18:00N 35°15' E 139°47'712.8
2018-Jun-12 17:29N 35°09' E 139°46'  
Track history (hours):
 
Tides and Currents Weather Stations Pressure Air Temp Water Temp Dewpoint Dewpoint Depression Visibility Wind Speed Wind Dir Waves Ship Positions

Ai Maru

Last reported at 2018-Jun-19 11:36 UTC. Time now 2018-Jun-19 22:13 UTC.
Position N 35°04' E 139°44'.

Length 105 m; draft 6.4 m.

Type: Tanker. MMSI: 431501797.

Date/timePositionNaut miles runAvg speedWind from/ knotsBaromVisibWave heightAir tempDewpointWater temp
2018-Jun-19 11:36N 35°04' E 139°44'113.6
2018-Jun-19 11:30N 35°05' E 139°45'713.9
2018-Jun-19 11:00N 35°12' E 139°46'611.2
2018-Jun-19 10:30N 35°17' E 139°45'612.0
2018-Jun-19 10:00N 35°23' E 139°42'612.8
2018-Jun-19 09:30N 35°28' E 139°47'3 6.6
2018-Jun-19 09:01N 35°31' E 139°46'0 0.1
2018-Jun-19 08:29N 35°31' E 139°46'0 0.0
2018-Jun-19 08:01N 35°31' E 139°46'0 0.1
2018-Jun-19 07:30N 35°31' E 139°46'0 0.1
2018-Jun-19 07:01N 35°31' E 139°46'0 0.1
2018-Jun-19 06:31N 35°31' E 139°46'0 0.0
2018-Jun-19 06:00N 35°31' E 139°46'0 0.0
2018-Jun-19 05:30N 35°31' E 139°46'0 0.0
2018-Jun-19 05:00N 35°31' E 139°46'0 0.0
2018-Jun-19 04:29N 35°31' E 139°46'0 0.1
2018-Jun-19 04:00N 35°31' E 139°46'0 0.1
2018-Jun-19 03:30N 35°31' E 139°46'0 0.0
2018-Jun-19 03:00N 35°31' E 139°46'0 0.0
2018-Jun-19 02:30N 35°31' E 139°46'0 0.0
2018-Jun-19 01:59N 35°31' E 139°46'0 0.1
2018-Jun-19 01:31N 35°31' E 139°46'0 0.1
2018-Jun-19 01:01N 35°31' E 139°46'0 0.0
2018-Jun-18 23:36N 35°31' E 139°46'0 0.0
2018-Jun-18 23:16N 35°31' E 139°46'0 0.0
2018-Jun-18 23:00N 35°31' E 139°46'0 0.0
2018-Jun-18 22:30N 35°31' E 139°46'0 0.0
2018-Jun-18 21:59N 35°31' E 139°46'0 0.0
2018-Jun-18 21:30N 35°31' E 139°46'1 1.4
2018-Jun-18 21:01N 35°31' E 139°46'4 8.0
2018-Jun-18 20:30N 35°28' E 139°42'4 8.8
2018-Jun-18 20:00N 35°23' E 139°44'0 0.3
2018-Jun-18 19:29N 35°23' E 139°44'0 0.0
2018-Jun-18 18:56N 35°23' E 139°44'0 0.0
2018-Jun-18 18:29N 35°23' E 139°44'0 0.1
2018-Jun-18 17:59N 35°23' E 139°44'0 0.0
2018-Jun-18 17:29N 35°23' E 139°44'0 0.0
2018-Jun-18 16:59N 35°23' E 139°44'0 0.0
2018-Jun-18 16:29N 35°23' E 139°44'0 0.1
2018-Jun-18 15:59N 35°23' E 139°44'0 0.0
2018-Jun-18 15:29N 35°23' E 139°44'0 0.0
2018-Jun-18 14:59N 35°23' E 139°44'0 0.0
2018-Jun-18 14:29N 35°23' E 139°44'0 0.0
2018-Jun-18 13:59N 35°23' E 139°44'0 0.0
2018-Jun-18 13:29N 35°23' E 139°44'0 0.0
2018-Jun-18 12:59N 35°23' E 139°44'0 0.0
2018-Jun-18 12:29N 35°23' E 139°44'0 0.0
2018-Jun-18 11:59N 35°23' E 139°44'0 0.1
2018-Jun-18 11:23N 35°23' E 139°44'0 0.0
2018-Jun-18 10:59N 35°23' E 139°44'0 0.1
2018-Jun-18 10:29N 35°23' E 139°44'0 0.0
2018-Jun-18 09:59N 35°23' E 139°44'0 0.0
2018-Jun-18 09:29N 35°23' E 139°44'0 0.0
2018-Jun-18 08:56N 35°23' E 139°44'0 0.1
2018-Jun-18 08:29N 35°23' E 139°44'0 0.0
2018-Jun-18 07:59N 35°23' E 139°44'0 0.0
2018-Jun-18 07:26N 35°23' E 139°44'0 0.0
2018-Jun-18 06:59N 35°23' E 139°44'0 0.0
2018-Jun-18 06:29N 35°23' E 139°44'0 0.1
2018-Jun-18 05:59N 35°23' E 139°44'0 0.1
2018-Jun-18 05:26N 35°23' E 139°44'0 0.0
2018-Jun-18 04:59N 35°23' E 139°44'0 0.0
2018-Jun-18 04:29N 35°23' E 139°44'0 0.0
2018-Jun-18 03:59N 35°23' E 139°44'0 0.0
2018-Jun-18 03:29N 35°23' E 139°44'0 0.0
2018-Jun-18 02:59N 35°23' E 139°44'0 0.0
2018-Jun-18 02:29N 35°23' E 139°44'0 0.0
2018-Jun-18 01:59N 35°23' E 139°44'0 0.0
2018-Jun-18 01:26N 35°23' E 139°44'0 0.0
2018-Jun-18 00:59N 35°23' E 139°44'0 0.1
2018-Jun-18 00:30N 35°23' E 139°44'4 7.2
2018-Jun-18 00:00N 35°24' E 139°40'0 0.4
2018-Jun-17 23:30N 35°24' E 139°40'0 0.9
2018-Jun-17 23:00N 35°24' E 139°40'5 9.8
2018-Jun-17 22:30N 35°20' E 139°43'612.1
2018-Jun-17 21:59N 35°15' E 139°47'712.4
2018-Jun-17 21:28N 35°08' E 139°46'  
2018-Jun-13 14:26N 35°02' E 139°44'614.6
2018-Jun-13 14:00N 35°09' E 139°45'713.3
2018-Jun-13 13:30N 35°15' E 139°46'612.7
2018-Jun-13 13:00N 35°21' E 139°42'4 8.9
2018-Jun-13 12:30N 35°24' E 139°40'0 0.0
2018-Jun-13 12:00N 35°24' E 139°40'0 0.0
2018-Jun-13 11:30N 35°24' E 139°40'0 0.0
2018-Jun-13 11:00N 35°24' E 139°40'0 0.0
2018-Jun-13 10:30N 35°24' E 139°40'0 0.0
2018-Jun-13 10:00N 35°24' E 139°40'0 0.0
2018-Jun-13 09:30N 35°24' E 139°40'0 0.0
2018-Jun-13 09:00N 35°24' E 139°40'0 0.0
2018-Jun-13 08:30N 35°24' E 139°40'0 0.0
2018-Jun-13 08:00N 35°24' E 139°40'0 0.0
2018-Jun-13 07:30N 35°24' E 139°40'0 0.0
2018-Jun-13 07:00N 35°24' E 139°40'0 0.0
2018-Jun-13 06:30N 35°24' E 139°40'0 0.0
2018-Jun-13 06:00N 35°24' E 139°40'0 0.0
2018-Jun-13 05:30N 35°24' E 139°40'0 0.0
2018-Jun-13 05:00N 35°24' E 139°40'0 0.0
2018-Jun-13 04:30N 35°24' E 139°40'0 0.0
2018-Jun-13 04:00N 35°24' E 139°40'0 0.0
2018-Jun-13 03:30N 35°24' E 139°40'0 0.0
2018-Jun-13 03:00N 35°24' E 139°40'1 2.1
2018-Jun-13 02:30N 35°24' E 139°40'4 7.1
2018-Jun-13 02:00N 35°22' E 139°44'0 0.1
2018-Jun-13 01:28N 35°22' E 139°44'0 0.0
2018-Jun-13 00:58N 35°22' E 139°44'0 0.0
2018-Jun-13 00:28N 35°22' E 139°44'0 0.0
2018-Jun-12 23:58N 35°22' E 139°44'0 0.0
2018-Jun-12 23:28N 35°22' E 139°44'0 0.0
2018-Jun-12 22:58N 35°22' E 139°44'0 0.0
2018-Jun-12 22:25N 35°22' E 139°44'0 0.0
2018-Jun-12 21:58N 35°22' E 139°44'0 0.0
2018-Jun-12 21:28N 35°22' E 139°44'0 0.0
2018-Jun-12 20:58N 35°22' E 139°44'0 0.0
2018-Jun-12 20:28N 35°22' E 139°44'0 0.0
2018-Jun-12 19:58N 35°22' E 139°44'0 0.0
2018-Jun-12 19:28N 35°22' E 139°44'0 0.0
2018-Jun-12 18:55N 35°22' E 139°44'1 3.1
2018-Jun-12 18:30N 35°21' E 139°44'611.6
2018-Jun-12 18:00N 35°15' E 139°47'712.8
2018-Jun-12 17:29N 35°09' E 139°46'  

Dump ship's entire track history